Climatologie pour Saint-Brevin les Pins
Jour • Résumé pour janvier 25, 2017 Système :  Métrique    Anglais   Mixte
« - 1 jour
+ 1 jour »
Jour Semaine Mois Année Personnalisé
  Maximum : Minimum : Moyenne :
Température sous abri : 4.2 °C -5.2 °C -0.9 °C
Point de rosée : 1.1 °C -6.0 °C -2.7 °C
Humidité : 96 % 75 % 88 %
Vitesse du vent : 17.7 km/h 0.0 km/h 4.2 km/h
Rafale : 25.7 km/h - -
Direction :- - ESE
Pression : 1028.7 hPa 1022.6 hPa -
Précipitations : 0.0 mm    
Historical Graphs
 
 
Tableau de données pour janvier 25, 2017
Heure Tempé Pt rosée Pression Vent Vitesse Rafale Humidité Taux pluie (/hr) Soleil
00:00 -3.0 °C -3.8 °C 1028.7 hPa Calm     94 % 0.0 mm 0 W/m2
00:10 -3.2 °C -4.0 °C 1028.7 hPa Calm     94 % 0.0 mm 0 W/m2
00:15 -3.3 °C -4.1 °C 1028.7 hPa Calm     94 % 0.0 mm 0 W/m2
00:20 -3.4 °C -4.4 °C 1028.7 hPa Calm     93 % 0.0 mm 0 W/m2
00:25 -3.4 °C -4.2 °C 1028.7 hPa Calm     94 % 0.0 mm 0 W/m2
00:30 -3.3 °C -4.1 °C 1028.7 hPa Calm     94 % 0.0 mm 0 W/m2
00:35 -3.3 °C -4.2 °C 1028.7 hPa Calm     94 % 0.0 mm 0 W/m2
00:40 -3.4 °C -4.3 °C 1028.7 hPa Calm     94 % 0.0 mm 0 W/m2
00:45 -3.6 °C -4.4 °C 1028.3 hPa Calm     94 % 0.0 mm 0 W/m2
00:50 -3.3 °C -4.2 °C 1028.3 hPa Calm     94 % 0.0 mm 0 W/m2
00:55 -3.4 °C -4.2 °C 1028.3 hPa Calm     94 % 0.0 mm 0 W/m2
01:00 -3.5 °C -4.3 °C 1028.3 hPa Calm     94 % 0.0 mm 0 W/m2
01:10 -3.5 °C -4.3 °C 1028.3 hPa Calm     94 % 0.0 mm 0 W/m2
01:15 -3.4 °C -4.2 °C 1028.3 hPa Calm     94 % 0.0 mm 0 W/m2
01:20 -3.5 °C -4.3 °C 1028.3 hPa Calm     94 % 0.0 mm 0 W/m2
01:25 -3.7 °C -4.5 °C 1028.3 hPa Calm     94 % 0.0 mm 0 W/m2
01:30 -3.7 °C -4.5 °C 1028.3 hPa Calm     94 % 0.0 mm 0 W/m2
01:35 -3.7 °C -4.5 °C 1028.3 hPa Calm   1.6 km/h 94 % 0.0 mm 0 W/m2
01:40 -3.7 °C -4.5 °C 1028.3 hPa Calm   1.6 km/h 94 % 0.0 mm 0 W/m2
01:45 -3.8 °C -4.6 °C 1028.3 hPa Calm     94 % 0.0 mm 0 W/m2
01:50 -3.8 °C -4.6 °C 1028.3 hPa Calm     94 % 0.0 mm 0 W/m2
01:55 -3.9 °C -4.7 °C 1028.0 hPa Calm     94 % 0.0 mm 0 W/m2
02:00 -4.0 °C -4.8 °C 1028.0 hPa Calm     94 % 0.0 mm 0 W/m2
02:05 -4.0 °C -4.8 °C 1028.0 hPa Calm     94 % 0.0 mm 0 W/m2
02:10 -4.0 °C -4.8 °C 1028.0 hPa Calm     94 % 0.0 mm 0 W/m2
02:15 -4.2 °C -5.0 °C 1028.0 hPa Calm     94 % 0.0 mm 0 W/m2
02:20 -4.2 °C -5.0 °C 1028.0 hPa Calm     94 % 0.0 mm 0 W/m2
02:25 -4.2 °C -5.0 °C 1028.0 hPa Calm     94 % 0.0 mm 0 W/m2
02:30 -4.1 °C -4.9 °C 1028.0 hPa Calm     94 % 0.0 mm 0 W/m2
02:35 -4.1 °C -4.9 °C 1028.0 hPa Calm     94 % 0.0 mm 0 W/m2
02:40 -4.1 °C -4.9 °C 1027.7 hPa Calm     94 % 0.0 mm 0 W/m2
02:45 -4.1 °C -4.9 °C 1027.7 hPa Calm   1.6 km/h 94 % 0.0 mm 0 W/m2
02:50 -4.2 °C -5.0 °C 1027.7 hPa Calm   1.6 km/h 94 % 0.0 mm 0 W/m2
02:55 -4.1 °C -4.9 °C 1028.0 hPa Calm     94 % 0.0 mm 0 W/m2
03:00 -4.2 °C -5.0 °C 1027.7 hPa Calm     94 % 0.0 mm 0 W/m2
03:05 -4.2 °C -5.0 °C 1027.7 hPa Calm     94 % 0.0 mm 0 W/m2
03:10 -4.4 °C -5.2 °C 1027.7 hPa Calm     94 % 0.0 mm 0 W/m2
03:15 -4.2 °C -5.0 °C 1028.0 hPa Calm   1.6 km/h 94 % 0.0 mm 0 W/m2
03:20 -4.1 °C -4.9 °C 1028.0 hPa Calm   3.2 km/h 94 % 0.0 mm 0 W/m2
03:25 -4.2 °C -5.0 °C 1027.7 hPa Calm   3.2 km/h 94 % 0.0 mm 0 W/m2
03:30 -4.2 °C -5.0 °C 1028.0 hPa Calm     94 % 0.0 mm 0 W/m2
03:35 -4.1 °C -4.9 °C 1028.0 hPa Calm     94 % 0.0 mm 0 W/m2
03:40 -4.1 °C -4.9 °C 1028.0 hPa Calm   1.6 km/h 94 % 0.0 mm 0 W/m2
03:45 -4.3 °C -5.1 °C 1027.7 hPa Calm   1.6 km/h 94 % 0.0 mm 0 W/m2
03:50 -4.2 °C -5.0 °C 1027.7 hPa Calm   1.6 km/h 94 % 0.0 mm 0 W/m2
03:55 -4.3 °C -5.1 °C 1027.7 hPa Calm   1.6 km/h 94 % 0.0 mm 0 W/m2
04:00 -4.2 °C -5.0 °C 1027.7 hPa Calm     94 % 0.0 mm 0 W/m2
04:05 -4.3 °C -5.1 °C 1027.7 hPa Calm   1.6 km/h 94 % 0.0 mm 0 W/m2
04:10 -4.2 °C -5.0 °C 1027.7 hPa Calm   1.6 km/h 94 % 0.0 mm 0 W/m2
04:15 -4.3 °C -5.2 °C 1027.7 hPa Calm     94 % 0.0 mm 0 W/m2
04:20 -4.6 °C -5.4 °C 1027.7 hPa Calm     94 % 0.0 mm 0 W/m2
04:25 -4.7 °C -5.5 °C 1027.7 hPa Calm     94 % 0.0 mm 0 W/m2
04:30 -4.7 °C -5.5 °C 1027.3 hPa Calm     94 % 0.0 mm 0 W/m2
04:35 -4.8 °C -5.6 °C 1027.7 hPa Calm     94 % 0.0 mm 0 W/m2
04:40 -4.8 °C -5.7 °C 1027.3 hPa Calm     94 % 0.0 mm 0 W/m2
04:45 -4.9 °C -5.8 °C 1027.3 hPa Calm     94 % 0.0 mm 0 W/m2
04:50 -4.9 °C -5.8 °C 1027.3 hPa Calm     94 % 0.0 mm 0 W/m2
04:55 -5.0 °C -5.8 °C 1027.3 hPa Calm     94 % 0.0 mm 0 W/m2
05:00 -4.8 °C -5.5 °C 1027.3 hPa Calm     95 % 0.0 mm 0 W/m2
05:10 -4.8 °C -5.7 °C 1027.3 hPa Calm     94 % 0.0 mm 0 W/m2
05:15 -4.8 °C -5.7 °C 1027.3 hPa Calm     94 % 0.0 mm 0 W/m2
05:20 -4.8 °C -5.6 °C 1027.3 hPa Calm     94 % 0.0 mm 0 W/m2
05:25 -4.8 °C -5.5 °C 1027.3 hPa Calm     95 % 0.0 mm 0 W/m2
05:30 -4.7 °C -5.3 °C 1027.3 hPa Calm     95 % 0.0 mm 0 W/m2
05:35 -4.6 °C -5.3 °C 1027.3 hPa Calm     95 % 0.0 mm 0 W/m2
05:40 -4.6 °C -5.4 °C 1027.3 hPa Calm     94 % 0.0 mm 0 W/m2
05:45 -4.6 °C -5.2 °C 1027.3 hPa Calm     95 % 0.0 mm 0 W/m2
05:50 -4.7 °C -5.5 °C 1027.3 hPa Calm     94 % 0.0 mm 0 W/m2
05:55 -4.8 °C -5.5 °C 1027.3 hPa Calm     95 % 0.0 mm 0 W/m2
06:00 -4.7 °C -5.3 °C 1027.0 hPa Calm     95 % 0.0 mm 0 W/m2
06:05 -4.6 °C -5.3 °C 1027.0 hPa Calm     95 % 0.0 mm 0 W/m2
06:10 -4.6 °C -5.3 °C 1027.0 hPa Calm     95 % 0.0 mm 0 W/m2
06:15 -4.7 °C -5.3 °C 1027.0 hPa Calm     95 % 0.0 mm 0 W/m2
06:20 -4.7 °C -5.3 °C 1027.0 hPa Calm   1.6 km/h 95 % 0.0 mm 0 W/m2
06:25 -4.6 °C -5.3 °C 1027.0 hPa Calm   1.6 km/h 95 % 0.0 mm 0 W/m2
06:30 -4.4 °C -5.1 °C 1027.0 hPa Calm   1.6 km/h 95 % 0.0 mm 0 W/m2
06:35 -4.4 °C -5.1 °C 1027.0 hPa Calm   3.2 km/h 95 % 0.0 mm 0 W/m2
06:40 -4.5 °C -5.2 °C 1027.0 hPa Calm   3.2 km/h 95 % 0.0 mm 0 W/m2
06:45 -4.4 °C -5.1 °C 1027.0 hPa Calm   1.6 km/h 95 % 0.0 mm 0 W/m2
06:50 -4.6 °C -5.2 °C 1027.0 hPa Calm   1.6 km/h 95 % 0.0 mm 0 W/m2
06:55 -4.7 °C -5.3 °C 1027.0 hPa Calm   1.6 km/h 95 % 0.0 mm 0 W/m2
07:00 -4.7 °C -5.4 °C 1027.0 hPa Calm     95 % 0.0 mm 0 W/m2
07:05 -4.8 °C -5.5 °C 1027.0 hPa Calm     95 % 0.0 mm 0 W/m2
07:10 -4.9 °C -5.6 °C 1027.0 hPa Calm     95 % 0.0 mm 0 W/m2
07:15 -4.9 °C -5.6 °C 1027.0 hPa Calm     95 % 0.0 mm 0 W/m2
07:20 -5.1 °C -5.8 °C 1027.0 hPa Calm   1.6 km/h 95 % 0.0 mm 0 W/m2
07:25 -5.2 °C -6.0 °C 1027.0 hPa Calm   1.6 km/h 94 % 0.0 mm 0 W/m2
07:30 -5.2 °C -5.8 °C 1027.0 hPa Calm     95 % 0.0 mm 0 W/m2
07:35 -5.2 °C -5.9 °C 1027.0 hPa Calm     95 % 0.0 mm 0 W/m2
07:40 -5.1 °C -5.7 °C 1026.6 hPa Calm     95 % 0.0 mm 0 W/m2
07:45 -4.9 °C -5.6 °C 1026.6 hPa Calm   1.6 km/h 95 % 0.0 mm 0 W/m2
07:50 -5.0 °C -5.7 °C 1026.6 hPa Calm   1.6 km/h 95 % 0.0 mm 0 W/m2
07:55 -4.9 °C -5.6 °C 1026.6 hPa Calm     95 % 0.0 mm 0 W/m2
08:00 -4.9 °C -5.6 °C 1026.6 hPa Calm   1.6 km/h 95 % 0.0 mm 0 W/m2
08:05 -4.6 °C -5.2 °C 1026.6 hPa Calm   1.6 km/h 95 % 0.0 mm 0 W/m2
08:10 -4.8 °C -5.5 °C 1027.0 hPa Calm   1.6 km/h 95 % 0.0 mm 0 W/m2
08:15 -4.7 °C -5.3 °C 1027.0 hPa Calm   1.6 km/h 95 % 0.0 mm 0 W/m2
08:20 -4.7 °C -5.4 °C 1027.0 hPa Calm   1.6 km/h 95 % 0.0 mm 0 W/m2
08:25 -4.6 °C -5.2 °C 1027.0 hPa Calm   1.6 km/h 95 % 0.0 mm 0 W/m2
08:30 -4.1 °C -4.7 °C 1027.0 hPa Calm   1.6 km/h 96 % 0.0 mm 0 W/m2
08:35 -4.3 °C -5.0 °C 1027.0 hPa Calm   1.6 km/h 95 % 0.0 mm 0 W/m2
08:40 -4.5 °C -5.2 °C 1027.0 hPa Calm   3.2 km/h 95 % 0.0 mm 0 W/m2
08:45 -4.6 °C -5.2 °C 1027.0 hPa Calm   3.2 km/h 95 % 0.0 mm 0 W/m2
08:50 -4.3 °C -5.0 °C 1027.0 hPa NE 3.2 km/h 4.8 km/h 95 % 0.0 mm 5 W/m2
08:55 -3.8 °C -4.5 °C 1027.0 hPa ESE 4.8 km/h 4.8 km/h 95 % 0.0 mm 9 W/m2
09:00 -3.3 °C -3.8 °C 1027.0 hPa ESE 6.4 km/h 8.0 km/h 96 % 0.0 mm 11 W/m2
09:05 -2.8 °C -3.4 °C 1027.3 hPa ESE 3.2 km/h 9.7 km/h 96 % 0.0 mm 14 W/m2
09:10 -2.5 °C -3.1 °C 1027.0 hPa ESE 4.8 km/h 9.7 km/h 96 % 0.0 mm 18 W/m2
09:15 -2.3 °C -3.0 °C 1027.0 hPa ESE 3.2 km/h 11.3 km/h 95 % 0.0 mm 19 W/m2
09:20 -2.1 °C -2.7 °C 1027.0 hPa ESE 1.6 km/h 14.5 km/h 95 % 0.0 mm 21 W/m2
09:25 -1.7 °C -2.4 °C 1027.0 hPa ESE 3.2 km/h 14.5 km/h 95 % 0.0 mm 26 W/m2
09:30 -1.4 °C -2.1 °C 1027.0 hPa ESE 3.2 km/h 11.3 km/h 95 % 0.0 mm 28 W/m2
09:35 -1.2 °C -1.7 °C 1027.0 hPa ESE 8.0 km/h 9.7 km/h 96 % 0.0 mm 28 W/m2
09:40 -1.1 °C -1.8 °C 1027.0 hPa ESE 3.2 km/h 9.7 km/h 95 % 0.0 mm 32 W/m2
09:45 -0.9 °C -1.6 °C 1027.0 hPa East 3.2 km/h 9.7 km/h 95 % 0.0 mm 42 W/m2
09:50 -0.7 °C -1.2 °C 1027.0 hPa ESE 3.2 km/h 11.3 km/h 96 % 0.0 mm 39 W/m2
09:55 -0.3 °C -0.9 °C 1027.0 hPa ESE 6.4 km/h 14.5 km/h 96 % 0.0 mm 42 W/m2
10:00 -0.2 °C -0.7 °C 1027.0 hPa ESE 12.9 km/h 17.7 km/h 96 % 0.0 mm 54 W/m2
10:05 0.1 °C -0.5 °C 1027.0 hPa ESE 12.9 km/h 17.7 km/h 96 % 0.0 mm 53 W/m2
10:10 0.2 °C -0.4 °C 1027.0 hPa ESE 3.2 km/h 16.1 km/h 96 % 0.0 mm 53 W/m2
10:15 0.2 °C -0.5 °C 1027.0 hPa East 11.3 km/h 17.7 km/h 95 % 0.0 mm 49 W/m2
10:20 0.2 °C -0.3 °C 1027.0 hPa ESE 8.0 km/h 17.7 km/h 96 % 0.0 mm 62 W/m2
10:25 0.2 °C -0.3 °C 1027.0 hPa ESE 11.3 km/h 17.7 km/h 96 % 0.0 mm 58 W/m2
10:30 0.2 °C -0.3 °C 1027.0 hPa East 12.9 km/h 19.3 km/h 96 % 0.0 mm 72 W/m2
10:35 0.2 °C -0.5 °C 1027.0 hPa East 4.8 km/h 19.3 km/h 95 % 0.0 mm 65 W/m2
10:40 0.2 °C -0.5 °C 1027.0 hPa ESE 8.0 km/h 19.3 km/h 95 % 0.0 mm 69 W/m2
10:45 0.2 °C -0.5 °C 1027.0 hPa East 12.9 km/h 25.7 km/h 95 % 0.0 mm 77 W/m2
10:50 0.2 °C -0.5 °C 1027.0 hPa ENE 8.0 km/h 25.7 km/h 95 % 0.0 mm 77 W/m2
10:55 0.2 °C -0.5 °C 1027.0 hPa ENE 6.4 km/h 24.1 km/h 95 % 0.0 mm 67 W/m2
11:00 0.2 °C -0.4 °C 1027.0 hPa SE 6.4 km/h 16.1 km/h 96 % 0.0 mm 70 W/m2
11:05 0.2 °C -0.5 °C 1027.3 hPa ESE 12.9 km/h 20.9 km/h 95 % 0.0 mm 72 W/m2
11:10 0.3 °C -0.4 °C 1027.3 hPa East 3.2 km/h 20.9 km/h 95 % 0.0 mm 93 W/m2
11:15 0.3 °C -0.3 °C 1027.0 hPa SE 12.9 km/h 19.3 km/h 96 % 0.0 mm 86 W/m2
11:20 0.3 °C -0.2 °C 1027.3 hPa ESE 6.4 km/h 22.5 km/h 96 % 0.0 mm 90 W/m2
11:25 0.4 °C -0.3 °C 1027.3 hPa ESE 8.0 km/h 22.5 km/h 95 % 0.0 mm 98 W/m2
11:30 0.4 °C -0.3 °C 1027.3 hPa ESE 8.0 km/h 17.7 km/h 95 % 0.0 mm 88 W/m2
11:35 0.4 °C -0.3 °C 1027.3 hPa ESE 8.0 km/h 16.1 km/h 95 % 0.0 mm 95 W/m2
11:40 0.6 °C -0.2 °C 1027.0 hPa ESE 4.8 km/h 16.1 km/h 95 % 0.0 mm 100 W/m2
11:45 0.6 °C -0.1 °C 1027.0 hPa ESE 4.8 km/h 16.1 km/h 95 % 0.0 mm 95 W/m2
11:50 0.7 °C 0.0 °C 1027.0 hPa SE 6.4 km/h 16.1 km/h 95 % 0.0 mm 97 W/m2
11:55 0.7 °C 0.0 °C 1027.0 hPa ESE 17.7 km/h 17.7 km/h 95 % 0.0 mm 109 W/m2
12:00 0.7 °C 0.0 °C 1027.0 hPa East 8.0 km/h 17.7 km/h 95 % 0.0 mm 102 W/m2
12:05 0.9 °C 0.2 °C 1027.0 hPa ESE 6.4 km/h 17.7 km/h 95 % 0.0 mm 156 W/m2
12:10 1.1 °C 0.3 °C 1026.6 hPa East 1.6 km/h 17.7 km/h 95 % 0.0 mm 144 W/m2
12:15 1.2 °C 0.3 °C 1026.6 hPa East 9.7 km/h 17.7 km/h 94 % 0.0 mm 160 W/m2
12:20 1.2 °C 0.3 °C 1026.6 hPa East 11.3 km/h 16.1 km/h 94 % 0.0 mm 167 W/m2
12:25 1.1 °C 0.1 °C 1026.6 hPa East 11.3 km/h 16.1 km/h 93 % 0.0 mm 163 W/m2
12:30 1.6 °C 0.5 °C 1026.6 hPa ENE 6.4 km/h 16.1 km/h 93 % 0.0 mm 258 W/m2
12:35 1.9 °C 0.5 °C 1026.3 hPa East 12.9 km/h 19.3 km/h 90 % 0.0 mm 132 W/m2
12:40 1.6 °C -0.1 °C 1026.3 hPa East 3.2 km/h 19.3 km/h 89 % 0.0 mm 178 W/m2
12:45 2.1 °C 0.8 °C 1026.3 hPa ENE 4.8 km/h 14.5 km/h 91 % 0.0 mm 492 W/m2
12:50 2.9 °C 0.8 °C 1026.3 hPa East 9.7 km/h 14.5 km/h 86 % 0.0 mm 461 W/m2
12:55 3.3 °C 1.0 °C 1026.0 hPa East 4.8 km/h 14.5 km/h 85 % 0.0 mm 506 W/m2
13:00 3.6 °C 1.1 °C 1026.0 hPa East 4.8 km/h 16.1 km/h 84 % 0.0 mm 462 W/m2
13:05 3.2 °C 0.3 °C 1026.0 hPa ENE 6.4 km/h 16.1 km/h 81 % 0.0 mm 151 W/m2
13:10 2.4 °C -0.2 °C 1026.0 hPa East 9.7 km/h 16.1 km/h 83 % 0.0 mm 237 W/m2
13:15 3.1 °C 0.6 °C 1026.0 hPa SE 9.7 km/h 14.5 km/h 84 % 0.0 mm 452 W/m2
13:20 3.5 °C 0.5 °C 1025.6 hPa SE 11.3 km/h 14.5 km/h 81 % 0.0 mm 441 W/m2
13:25 3.7 °C 0.6 °C 1025.6 hPa ENE 11.3 km/h 14.5 km/h 80 % 0.0 mm 439 W/m2
13:30 3.8 °C 0.7 °C 1025.6 hPa ESE 8.0 km/h 14.5 km/h 80 % 0.0 mm 397 W/m2
13:35 4.1 °C 0.7 °C 1025.3 hPa SE 12.9 km/h 17.7 km/h 79 % 0.0 mm 489 W/m2
13:40 4.2 °C 0.7 °C 1025.3 hPa ENE 8.0 km/h 17.7 km/h 78 % 0.0 mm 445 W/m2
13:45 3.8 °C 0.3 °C 1025.3 hPa ENE 3.2 km/h 20.9 km/h 78 % 0.0 mm 239 W/m2
13:50 3.3 °C 0.2 °C 1025.3 hPa East 6.4 km/h 20.9 km/h 80 % 0.0 mm 193 W/m2
13:55 3.2 °C 0.1 °C 1025.3 hPa ENE 6.4 km/h 12.9 km/h 80 % 0.0 mm 142 W/m2
14:00 3.1 °C 0.3 °C 1024.9 hPa ENE 1.6 km/h 12.9 km/h 82 % 0.0 mm 188 W/m2
14:05 3.3 °C 0.2 °C 1024.9 hPa ENE 3.2 km/h 8.0 km/h 80 % 0.0 mm 204 W/m2
14:10 3.3 °C 0.2 °C 1024.9 hPa East 11.3 km/h 11.3 km/h 80 % 0.0 mm 171 W/m2
14:15 3.2 °C 0.3 °C 1024.6 hPa ENE 9.7 km/h 12.9 km/h 81 % 0.0 mm 190 W/m2
14:20 3.1 °C 0.0 °C 1024.6 hPa ENE 4.8 km/h 12.9 km/h 80 % 0.0 mm 202 W/m2
14:25 3.1 °C 0.0 °C 1024.6 hPa ESE 11.3 km/h 12.9 km/h 80 % 0.0 mm 202 W/m2
14:30 3.3 °C 0.3 °C 1024.6 hPa NE 8.0 km/h 12.9 km/h 81 % 0.0 mm 223 W/m2
14:35 3.3 °C 0.0 °C 1024.6 hPa ENE 8.0 km/h 14.5 km/h 79 % 0.0 mm 171 W/m2
14:40 3.1 °C 0.2 °C 1024.6 hPa ENE 14.5 km/h 14.5 km/h 81 % 0.0 mm 174 W/m2
14:45 3.2 °C 0.3 °C 1024.3 hPa ENE 8.0 km/h 14.5 km/h 81 % 0.0 mm 160 W/m2
14:50 3.2 °C 0.0 °C 1024.3 hPa NNE 9.7 km/h 14.5 km/h 80 % 0.0 mm 151 W/m2
14:55 3.2 °C 0.0 °C 1024.3 hPa ENE 11.3 km/h 14.5 km/h 80 % 0.0 mm 153 W/m2
15:00 3.3 °C 0.2 °C 1024.3 hPa NE 11.3 km/h 14.5 km/h 80 % 0.0 mm 246 W/m2
15:05 3.5 °C 0.2 °C 1024.3 hPa ENE 3.2 km/h 12.9 km/h 79 % 0.0 mm 202 W/m2
15:10 3.5 °C 0.2 °C 1023.9 hPa Calm   12.9 km/h 79 % 0.0 mm 188 W/m2
15:15 3.6 °C 0.3 °C 1023.9 hPa East 11.3 km/h 12.9 km/h 79 % 0.0 mm 148 W/m2
15:20 3.6 °C -0.1 °C 1023.9 hPa ENE 4.8 km/h 14.5 km/h 77 % 0.0 mm 190 W/m2
15:25 3.6 °C -0.1 °C 1023.9 hPa East 9.7 km/h 14.5 km/h 77 % 0.0 mm 135 W/m2
15:30 3.6 °C 0.1 °C 1023.9 hPa NE 11.3 km/h 11.3 km/h 78 % 0.0 mm 128 W/m2
15:35 3.4 °C -0.2 °C 1023.9 hPa ENE 6.4 km/h 14.5 km/h 77 % 0.0 mm 132 W/m2
15:40 3.4 °C -0.3 °C 1023.9 hPa East 9.7 km/h 14.5 km/h 77 % 0.0 mm 125 W/m2
15:45 3.6 °C -0.2 °C 1023.9 hPa NE 9.7 km/h 16.1 km/h 76 % 0.0 mm 239 W/m2
15:50 3.6 °C -0.4 °C 1023.9 hPa ENE 11.3 km/h 16.1 km/h 75 % 0.0 mm 93 W/m2
15:55 3.2 °C -0.6 °C 1023.9 hPa East 11.3 km/h 16.1 km/h 76 % 0.0 mm 111 W/m2
16:00 3.0 °C -0.6 °C 1023.9 hPa East 4.8 km/h 12.9 km/h 77 % 0.0 mm 95 W/m2
16:10 3.1 °C -0.5 °C 1023.6 hPa ENE 6.4 km/h 12.9 km/h 77 % 0.0 mm 155 W/m2
16:15 3.3 °C -0.5 °C 1023.6 hPa ENE 4.8 km/h 12.9 km/h 76 % 0.0 mm 169 W/m2
16:20 3.3 °C -0.5 °C 1023.9 hPa ESE 4.8 km/h 12.9 km/h 76 % 0.0 mm 155 W/m2
16:25 3.4 °C -0.6 °C 1023.9 hPa East 12.9 km/h 14.5 km/h 75 % 0.0 mm 132 W/m2
16:30 3.3 °C -0.7 °C 1023.9 hPa East 4.8 km/h 14.5 km/h 75 % 0.0 mm 77 W/m2
16:40 2.9 °C -1.1 °C 1023.6 hPa ESE 1.6 km/h 12.9 km/h 75 % 0.0 mm 70 W/m2
16:50 2.7 °C -1.1 °C 1023.6 hPa East 8.0 km/h 14.5 km/h 76 % 0.0 mm 56 W/m2
16:55 2.6 °C -1.3 °C 1023.6 hPa East 8.0 km/h 12.9 km/h 76 % 0.0 mm 56 W/m2
17:00 2.5 °C -1.3 °C 1023.6 hPa SE 6.4 km/h 11.3 km/h 76 % 0.0 mm 47 W/m2
17:05 2.4 °C -1.4 °C 1023.6 hPa East 3.2 km/h 11.3 km/h 76 % 0.0 mm 49 W/m2
17:10 2.4 °C -1.2 °C 1023.6 hPa ESE 4.8 km/h 12.9 km/h 77 % 0.0 mm 47 W/m2
17:15 2.3 °C -1.3 °C 1023.6 hPa SE 4.8 km/h 12.9 km/h 77 % 0.0 mm 51 W/m2
17:20 2.2 °C -1.4 °C 1023.6 hPa ESE 6.4 km/h 11.3 km/h 77 % 0.0 mm 39 W/m2
17:25 2.1 °C -1.5 °C 1023.6 hPa ESE 9.7 km/h 14.5 km/h 77 % 0.0 mm 26 W/m2
17:30 1.8 °C -1.8 °C 1023.6 hPa ESE 6.4 km/h 14.5 km/h 77 % 0.0 mm 23 W/m2
17:35 1.7 °C -1.8 °C 1023.6 hPa ESE 1.6 km/h 11.3 km/h 78 % 0.0 mm 21 W/m2
17:40 1.4 °C -2.0 °C 1023.6 hPa ESE 1.6 km/h 8.0 km/h 78 % 0.0 mm 12 W/m2
17:45 1.2 °C -2.0 °C 1023.6 hPa ESE 3.2 km/h 8.0 km/h 79 % 0.0 mm 11 W/m2
17:50 1.0 °C -2.1 °C 1023.6 hPa ESE 3.2 km/h 8.0 km/h 80 % 0.0 mm 9 W/m2
17:55 0.8 °C -2.3 °C 1023.6 hPa ESE 3.2 km/h 8.0 km/h 80 % 0.0 mm 5 W/m2
18:00 0.7 °C -2.2 °C 1023.6 hPa ESE 4.8 km/h 8.0 km/h 81 % 0.0 mm 0 W/m2
18:05 0.5 °C -2.4 °C 1023.6 hPa Calm   6.4 km/h 81 % 0.0 mm 0 W/m2
18:10 0.2 °C -2.5 °C 1023.6 hPa ESE 1.6 km/h 6.4 km/h 82 % 0.0 mm 0 W/m2
18:15 0.0 °C -2.5 °C 1023.6 hPa ESE 1.6 km/h 6.4 km/h 83 % 0.0 mm 0 W/m2
18:20 0.0 °C -2.5 °C 1023.6 hPa ESE 1.6 km/h 6.4 km/h 83 % 0.0 mm 0 W/m2
18:25 -0.2 °C -2.6 °C 1023.6 hPa ESE 3.2 km/h 6.4 km/h 84 % 0.0 mm 0 W/m2
18:30 -0.4 °C -2.8 °C 1023.6 hPa ESE 3.2 km/h 6.4 km/h 84 % 0.0 mm 0 W/m2
18:35 -0.4 °C -2.8 °C 1023.6 hPa Calm   6.4 km/h 84 % 0.0 mm 0 W/m2
18:40 -0.4 °C -2.7 °C 1023.6 hPa Calm   4.8 km/h 85 % 0.0 mm 0 W/m2
18:45 -0.3 °C -2.5 °C 1023.6 hPa Calm   4.8 km/h 85 % 0.0 mm 0 W/m2
18:50 -0.3 °C -2.5 °C 1023.6 hPa Calm   4.8 km/h 85 % 0.0 mm 0 W/m2
18:55 -0.3 °C -2.5 °C 1023.6 hPa SE 3.2 km/h 4.8 km/h 85 % 0.0 mm 0 W/m2
19:00 -0.2 °C -2.4 °C 1023.6 hPa East 4.8 km/h 8.0 km/h 85 % 0.0 mm 0 W/m2
19:05 0.1 °C -2.2 °C 1023.6 hPa SSE 3.2 km/h 8.0 km/h 85 % 0.0 mm 0 W/m2
19:10 0.2 °C -2.2 °C 1023.6 hPa SE 6.4 km/h 8.0 km/h 84 % 0.0 mm 0 W/m2
19:15 0.3 °C -2.1 °C 1023.6 hPa SE 1.6 km/h 6.4 km/h 84 % 0.0 mm 0 W/m2
19:20 0.2 °C -2.3 °C 1023.6 hPa SE 1.6 km/h 6.4 km/h 83 % 0.0 mm 0 W/m2
19:25 0.2 °C -2.2 °C 1023.6 hPa SSE 4.8 km/h 6.4 km/h 84 % 0.0 mm 0 W/m2
19:30 0.3 °C -2.3 °C 1023.6 hPa ESE 6.4 km/h 8.0 km/h 83 % 0.0 mm 0 W/m2
19:35 0.3 °C -2.3 °C 1023.6 hPa SE 4.8 km/h 8.0 km/h 83 % 0.0 mm 0 W/m2
19:40 0.3 °C -2.2 °C 1023.2 hPa ESE 4.8 km/h 11.3 km/h 83 % 0.0 mm 0 W/m2
19:45 0.4 °C -2.3 °C 1023.2 hPa ENE 3.2 km/h 14.5 km/h 82 % 0.0 mm 0 W/m2
19:50 0.5 °C -2.4 °C 1023.2 hPa ESE 12.9 km/h 14.5 km/h 81 % 0.0 mm 0 W/m2
19:55 0.6 °C -2.3 °C 1023.2 hPa SE 8.0 km/h 12.9 km/h 81 % 0.0 mm 0 W/m2
20:00 0.6 °C -2.3 °C 1023.2 hPa ESE 11.3 km/h 12.9 km/h 81 % 0.0 mm 0 W/m2
20:05 0.6 °C -2.3 °C 1023.2 hPa ESE 4.8 km/h 16.1 km/h 81 % 0.0 mm 0 W/m2
20:10 0.6 °C -2.3 °C 1023.2 hPa ESE 3.2 km/h 16.1 km/h 81 % 0.0 mm 0 W/m2
20:15 0.6 °C -2.3 °C 1023.2 hPa ESE 14.5 km/h 14.5 km/h 81 % 0.0 mm 0 W/m2
20:20 0.6 °C -2.5 °C 1023.2 hPa SE 4.8 km/h 17.7 km/h 80 % 0.0 mm 0 W/m2
20:25 0.6 °C -2.5 °C 1023.2 hPa ESE 1.6 km/h 17.7 km/h 80 % 0.0 mm 0 W/m2
20:30 0.6 °C -2.5 °C 1023.2 hPa SE 3.2 km/h 14.5 km/h 80 % 0.0 mm 0 W/m2
20:35 0.5 °C -2.6 °C 1023.2 hPa ESE 8.0 km/h 14.5 km/h 80 % 0.0 mm 0 W/m2
20:40 0.5 °C -2.6 °C 1023.2 hPa ENE 1.6 km/h 12.9 km/h 80 % 0.0 mm 0 W/m2
20:45 0.5 °C -2.6 °C 1023.2 hPa ESE 4.8 km/h 12.9 km/h 80 % 0.0 mm 0 W/m2
20:50 0.5 °C -2.6 °C 1023.2 hPa ENE 1.6 km/h 12.9 km/h 80 % 0.0 mm 0 W/m2
20:55 0.4 °C -2.6 °C 1023.2 hPa East 4.8 km/h 12.9 km/h 80 % 0.0 mm 0 W/m2
21:00 0.4 °C -2.4 °C 1023.2 hPa ESE 11.3 km/h 14.5 km/h 81 % 0.0 mm 0 W/m2
21:05 0.4 °C -2.5 °C 1023.2 hPa ESE 8.0 km/h 14.5 km/h 81 % 0.0 mm 0 W/m2
21:10 0.3 °C -2.5 °C 1023.2 hPa East 4.8 km/h 14.5 km/h 81 % 0.0 mm 0 W/m2
21:15 0.3 °C -2.5 °C 1023.2 hPa East 9.7 km/h 14.5 km/h 81 % 0.0 mm 0 W/m2
21:20 0.3 °C -2.6 °C 1023.2 hPa ESE 8.0 km/h 14.5 km/h 81 % 0.0 mm 0 W/m2
21:25 0.2 °C -2.7 °C 1023.2 hPa East 8.0 km/h 12.9 km/h 81 % 0.0 mm 0 W/m2
21:30 0.2 °C -2.7 °C 1023.2 hPa ESE 6.4 km/h 12.9 km/h 81 % 0.0 mm 0 W/m2
21:35 0.2 °C -2.7 °C 1023.2 hPa ESE 11.3 km/h 14.5 km/h 81 % 0.0 mm 0 W/m2
21:40 0.2 °C -2.5 °C 1023.2 hPa East 12.9 km/h 17.7 km/h 82 % 0.0 mm 0 W/m2
21:45 0.2 °C -2.7 °C 1023.2 hPa SE 8.0 km/h 17.7 km/h 81 % 0.0 mm 0 W/m2
21:50 0.2 °C -2.7 °C 1023.2 hPa ESE 3.2 km/h 14.5 km/h 81 % 0.0 mm 0 W/m2
21:55 0.2 °C -2.7 °C 1023.2 hPa ESE 6.4 km/h 16.1 km/h 81 % 0.0 mm 0 W/m2
22:00 0.2 °C -2.5 °C 1022.9 hPa SE 8.0 km/h 16.1 km/h 82 % 0.0 mm 0 W/m2
22:05 0.2 °C -2.5 °C 1022.9 hPa ESE 4.8 km/h 16.1 km/h 82 % 0.0 mm 0 W/m2
22:10 0.2 °C -2.5 °C 1022.9 hPa SE 6.4 km/h 16.1 km/h 82 % 0.0 mm 0 W/m2
22:15 0.2 °C -2.5 °C 1022.9 hPa SE 4.8 km/h 12.9 km/h 82 % 0.0 mm 0 W/m2
22:20 0.1 °C -2.6 °C 1022.9 hPa SE 3.2 km/h 14.5 km/h 82 % 0.0 mm 0 W/m2
22:25 0.1 °C -2.7 °C 1022.9 hPa SSE 8.0 km/h 20.9 km/h 82 % 0.0 mm 0 W/m2
22:30 0.0 °C -2.9 °C 1022.9 hPa ESE 12.9 km/h 20.9 km/h 81 % 0.0 mm 0 W/m2
22:35 -0.1 °C -2.9 °C 1022.9 hPa SE 8.0 km/h 19.3 km/h 81 % 0.0 mm 0 W/m2
22:40 -0.1 °C -2.9 °C 1022.9 hPa ESE 12.9 km/h 16.1 km/h 81 % 0.0 mm 0 W/m2
22:45 -0.1 °C -2.8 °C 1022.9 hPa ESE 8.0 km/h 12.9 km/h 82 % 0.0 mm 0 W/m2
22:50 -0.1 °C -2.8 °C 1022.6 hPa SE 8.0 km/h 14.5 km/h 82 % 0.0 mm 0 W/m2
22:55 -0.1 °C -2.8 °C 1022.9 hPa ESE 8.0 km/h 16.1 km/h 82 % 0.0 mm 0 W/m2
23:05 -0.1 °C -2.8 °C 1022.9 hPa SE 16.1 km/h 16.1 km/h 82 % 0.0 mm 0 W/m2
23:10 -0.1 °C -2.7 °C 1022.9 hPa SSE 4.8 km/h 16.1 km/h 83 % 0.0 mm 0 W/m2
23:15 -0.2 °C -2.9 °C 1022.9 hPa SE 6.4 km/h 16.1 km/h 82 % 0.0 mm 0 W/m2
23:20 -0.3 °C -3.0 °C 1022.9 hPa SE 3.2 km/h 16.1 km/h 82 % 0.0 mm 0 W/m2
23:25 -0.3 °C -3.0 °C 1022.6 hPa SE 6.4 km/h 16.1 km/h 82 % 0.0 mm 0 W/m2
23:30 -0.4 °C -3.1 °C 1022.6 hPa ESE 3.2 km/h 17.7 km/h 82 % 0.0 mm 0 W/m2
23:35 -0.4 °C -3.0 °C 1022.6 hPa SE 8.0 km/h 17.7 km/h 83 % 0.0 mm 0 W/m2
23:40 -0.5 °C -3.0 °C 1022.6 hPa SSE 14.5 km/h 16.1 km/h 83 % 0.0 mm 0 W/m2
23:45 -0.6 °C -3.3 °C 1022.6 hPa SE 6.4 km/h 16.1 km/h 82 % 0.0 mm 0 W/m2
23:50 -0.7 °C -3.4 °C 1022.6 hPa ESE 3.2 km/h 14.5 km/h 82 % 0.0 mm 0 W/m2
23:55 -0.7 °C -3.4 °C 1022.6 hPa ESE 6.4 km/h 14.5 km/h 82 % 0.0 mm 0 W/m2
Avec l'autorisation de Weather Underground - 1.75 mb